Time;durP1;ratioP1;P1;durP2;ratioP2;P2;SDS_P1;SDS_P2;PMS_P1;PMS_P2;Temp;Humidity;BMP_temperature;BMP_pressure;BME280_temperature;BME280_humidity;BME280_pressure;Samples;Min_cycle;Max_cycle;Signal;HPM_P1;HPM_P2
2023/03/12 00:01:39;;;;;;;16.83;8.18;;;;;;;;;;6262128;28;20479;-61
2023/03/12 00:04:40;;;;;;;17.67;8.52;;;;;;;;;;6264387;28;21535;-61
2023/03/12 00:07:40;;;;;;;17.23;7.38;;;;;;;;;;6264300;28;20041;-61
2023/03/12 00:10:41;;;;;;;18.60;8.68;;;;;;;;;;6263562;28;20053;-60
2023/03/12 00:13:42;;;;;;;18.92;7.70;;;;;;;;;;6262102;28;20462;-61
2023/03/12 00:16:43;;;;;;;15.93;7.45;;;;;;;;;;6260985;28;20053;-62
2023/03/12 00:19:44;;;;;;;15.13;7.53;;;;;;;;;;6257229;28;20523;-61
2023/03/12 00:22:45;;;;;;;15.57;7.93;;;;;;;;;;6263242;28;20106;-61
2023/03/12 00:25:45;;;;;;;14.50;7.18;;;;;;;;;;6261263;28;20064;-60
2023/03/12 00:28:48;;;;;;;17.33;8.30;;;;;;;;;;6264884;28;20203;-60
2023/03/12 00:31:50;;;;;;;18.38;8.45;;;;;;;;;;6262483;28;20044;-62
2023/03/12 00:34:52;;;;;;;17.27;7.75;;;;;;;;;;6261451;28;20047;-62
2023/03/12 00:37:53;;;;;;;22.02;9.63;;;;;;;;;;6258790;28;20041;-62
2023/03/12 00:40:53;;;;;;;18.80;8.82;;;;;;;;;;6265108;28;20049;-62
2023/03/12 00:43:54;;;;;;;22.95;9.40;;;;;;;;;;6260231;28;20052;-62
2023/03/12 00:46:55;;;;;;;18.67;8.65;;;;;;;;;;6258703;28;20211;-62
2023/03/12 00:49:55;;;;;;;17.17;8.48;;;;;;;;;;6261316;28;20060;-60
2023/03/12 00:52:56;;;;;;;18.67;8.57;;;;;;;;;;6259873;28;20049;-61
2023/03/12 00:55:56;;;;;;;19.30;8.63;;;;;;;;;;6262170;28;20052;-61
2023/03/12 00:58:57;;;;;;;17.13;8.35;;;;;;;;;;6263587;28;20080;-61
2023/03/12 01:01:57;;;;;;;19.27;8.63;;;;;;;;;;6265805;28;20380;-61
2023/03/12 01:04:58;;;;;;;18.55;8.02;;;;;;;;;;6262080;28;20116;-62
2023/03/12 01:07:59;;;;;;;18.35;7.68;;;;;;;;;;6261666;28;20056;-61
2023/03/12 01:10:59;;;;;;;19.35;7.75;;;;;;;;;;6262194;28;20052;-62
2023/03/12 01:14:01;;;;;;;19.35;8.73;;;;;;;;;;6262264;28;20467;-62
2023/03/12 01:17:02;;;;;;;17.58;7.88;;;;;;;;;;6259080;28;20059;-60
2023/03/12 01:20:04;;;;;;;21.92;8.50;;;;;;;;;;6260826;28;20048;-62
2023/03/12 01:23:05;;;;;;;19.65;8.07;;;;;;;;;;6260762;28;20041;-62
2023/03/12 01:26:05;;;;;;;18.95;8.20;;;;;;;;;;6262896;28;20499;-62
2023/03/12 01:29:06;;;;;;;17.77;8.30;;;;;;;;;;6264127;28;20052;-61
2023/03/12 01:32:07;;;;;;;18.25;7.97;;;;;;;;;;6261255;28;20049;-62
2023/03/12 01:35:08;;;;;;;20.40;8.65;;;;;;;;;;6261994;28;20057;-59
2023/03/12 01:38:13;;;;;;;20.20;8.35;;;;;;;;;;6261239;28;20033;-62
2023/03/12 01:41:14;;;;;;;16.80;8.00;;;;;;;;;;6262279;28;20060;-62
2023/03/12 01:44:15;;;;;;;18.75;7.60;;;;;;;;;;6261414;28;20776;-62
2023/03/12 01:47:15;;;;;;;18.42;8.07;;;;;;;;;;6259856;28;20037;-62
2023/03/12 01:50:16;;;;;;;18.80;7.65;;;;;;;;;;6262416;28;20416;-60
2023/03/12 01:53:17;;;;;;;22.23;7.85;;;;;;;;;;6261305;28;20048;-60
2023/03/12 01:56:19;;;;;;;19.30;8.27;;;;;;;;;;6261031;28;20049;-61
2023/03/12 01:59:45;;;;;;;17.73;7.75;;;;;;;;;;6262264;28;20478;-61
2023/03/12 02:02:47;;;;;;;15.40;6.95;;;;;;;;;;6262778;28;20045;-60
2023/03/12 02:05:54;;;;;;;15.60;7.03;;;;;;;;;;6260697;28;20983;-60
2023/03/12 02:08:58;;;;;;;17.95;7.65;;;;;;;;;;6261341;28;20678;-60
2023/03/12 02:11:59;;;;;;;17.60;7.60;;;;;;;;;;6259741;28;20049;-61
2023/03/12 02:15:00;;;;;;;20.20;8.02;;;;;;;;;;6259776;28;20417;-61
2023/03/12 02:18:06;;;;;;;18.38;7.82;;;;;;;;;;6261518;28;20498;-61
2023/03/12 02:21:20;;;;;;;20.17;8.25;;;;;;;;;;6258757;28;20523;-61
2023/03/12 02:24:31;;;;;;;18.60;8.30;;;;;;;;;;6261203;28;20086;-61
2023/03/12 02:27:35;;;;;;;21.33;7.90;;;;;;;;;;6260559;28;20089;-61
2023/03/12 02:30:41;;;;;;;21.35;9.45;;;;;;;;;;6258285;28;20049;-61
2023/03/12 02:33:42;;;;;;;19.70;9.10;;;;;;;;;;6259557;28;20426;-61
2023/03/12 02:36:42;;;;;;;19.73;8.70;;;;;;;;;;6257839;28;20095;-61
2023/03/12 02:39:48;;;;;;;18.20;9.05;;;;;;;;;;6258405;28;20537;-61
2023/03/12 02:42:50;;;;;;;22.13;9.20;;;;;;;;;;6260339;28;20067;-61
2023/03/12 02:45:51;;;;;;;20.70;9.67;;;;;;;;;;6260752;28;20056;-61
2023/03/12 02:48:52;;;;;;;21.00;9.23;;;;;;;;;;6262644;28;20120;-61
2023/03/12 02:51:53;;;;;;;22.58;9.23;;;;;;;;;;6264288;28;20048;-61
2023/03/12 02:54:54;;;;;;;20.70;9.85;;;;;;;;;;6263159;28;20438;-61
2023/03/12 02:57:54;;;;;;;20.77;9.05;;;;;;;;;;6263588;28;20045;-61
2023/03/12 03:00:55;;;;;;;23.17;9.82;;;;;;;;;;6263387;28;20072;-61
2023/03/12 03:03:55;;;;;;;20.15;9.25;;;;;;;;;;6243023;28;20041;-61
2023/03/12 03:06:56;;;;;;;20.95;10.10;;;;;;;;;;6260483;28;20049;-60
2023/03/12 03:10:02;;;;;;;21.08;9.88;;;;;;;;;;6263848;28;20603;-63
2023/03/12 03:13:03;;;;;;;20.75;10.50;;;;;;;;;;6260852;28;20068;-60
2023/03/12 03:16:04;;;;;;;21.58;10.25;;;;;;;;;;6266169;28;20052;-62
2023/03/12 03:19:05;;;;;;;19.23;9.60;;;;;;;;;;6266555;28;20110;-62
2023/03/12 03:22:06;;;;;;;21.23;10.15;;;;;;;;;;6262912;28;20049;-60
2023/03/12 03:25:08;;;;;;;22.58;10.50;;;;;;;;;;6264643;28;20041;-62
2023/03/12 03:28:09;;;;;;;24.10;10.38;;;;;;;;;;6270595;28;20060;-61
2023/03/12 03:31:10;;;;;;;22.85;9.60;;;;;;;;;;6265104;28;20569;-62
2023/03/12 03:34:11;;;;;;;21.10;9.27;;;;;;;;;;6263931;28;20049;-61
2023/03/12 03:37:12;;;;;;;22.37;8.97;;;;;;;;;;6264608;28;20083;-62
2023/03/12 03:40:12;;;;;;;24.35;10.35;;;;;;;;;;6267408;28;20284;-62
2023/03/12 03:43:13;;;;;;;21.35;9.73;;;;;;;;;;6246753;28;20045;-62
2023/03/12 03:46:14;;;;;;;22.45;9.25;;;;;;;;;;6264564;28;20412;-61
2023/03/12 03:49:15;;;;;;;25.50;13.75;;;;;;;;;;6269208;28;20063;-61
2023/03/12 03:52:16;;;;;;;20.95;9.98;;;;;;;;;;6261015;28;20048;-62
2023/03/12 03:55:17;;;;;;;26.60;11.60;;;;;;;;;;6263995;28;20048;-61
2023/03/12 03:58:17;;;;;;;26.52;11.82;;;;;;;;;;6265628;28;20044;-61
2023/03/12 04:01:18;;;;;;;27.45;11.27;;;;;;;;;;6261231;28;20511;-62
2023/03/12 04:04:19;;;;;;;26.27;11.38;;;;;;;;;;6263336;28;20152;-61
2023/03/12 04:07:20;;;;;;;28.83;12.10;;;;;;;;;;6267010;28;20520;-61
2023/03/12 04:10:22;;;;;;;23.70;10.77;;;;;;;;;;6263951;28;20049;-61
2023/03/12 04:13:23;;;;;;;;;;;;;;;;;;6263491;28;20063;-61
2023/03/12 04:16:23;;;;;;;25.10;11.27;;;;;;;;;;6267405;28;19924;-62
2023/03/12 04:19:24;;;;;;;24.67;11.10;;;;;;;;;;6264682;28;20386;-62
2023/03/12 04:22:25;;;;;;;24.05;11.18;;;;;;;;;;6262301;28;20079;-61
2023/03/12 04:25:25;;;;;;;23.50;10.52;;;;;;;;;;6264161;28;20060;-62
2023/03/12 04:28:26;;;;;;;23.10;10.13;;;;;;;;;;6267200;28;20061;-61
2023/03/12 04:31:26;;;;;;;27.90;11.80;;;;;;;;;;6261625;28;20060;-61
2023/03/12 04:34:27;;;;;;;22.35;10.07;;;;;;;;;;6269313;28;20068;-62
2023/03/12 04:37:31;;;;;;;24.27;10.60;;;;;;;;;;6265664;28;20648;-62
2023/03/12 04:40:32;;;;;;;25.85;9.90;;;;;;;;;;6266442;28;20045;-62
2023/03/12 04:43:33;;;;;;;23.25;10.57;;;;;;;;;;6263495;28;20049;-61
2023/03/12 04:46:34;;;;;;;24.58;11.63;;;;;;;;;;6263171;28;20045;-61
2023/03/12 04:49:37;;;;;;;22.70;10.65;;;;;;;;;;6263071;28;20106;-61
2023/03/12 04:52:37;;;;;;;26.45;10.90;;;;;;;;;;6262505;28;20063;-61
2023/03/12 04:55:38;;;;;;;28.00;10.95;;;;;;;;;;6265629;28;20639;-61
2023/03/12 04:58:39;;;;;;;23.40;10.88;;;;;;;;;;6262185;28;20052;-62
2023/03/12 05:01:40;;;;;;;23.10;11.18;;;;;;;;;;6260477;28;20063;-61
2023/03/12 05:04:40;;;;;;;32.35;11.63;;;;;;;;;;6262409;28;20041;-61
2023/03/12 05:07:41;;;;;;;24.02;11.20;;;;;;;;;;6266607;28;20099;-61
2023/03/12 05:10:44;;;;;;;23.77;10.82;;;;;;;;;;6260786;28;20053;-61
2023/03/12 05:13:45;;;;;;;21.40;10.70;;;;;;;;;;6265433;28;20051;-61
2023/03/12 05:16:45;;;;;;;28.23;10.80;;;;;;;;;;6269460;28;20048;-61
2023/03/12 05:19:46;;;;;;;23.05;10.70;;;;;;;;;;6263089;28;20716;-61
2023/03/12 05:22:46;;;;;;;23.10;9.77;;;;;;;;;;6261888;28;20069;-61
2023/03/12 05:25:47;;;;;;;20.42;8.70;;;;;;;;;;6263030;28;20064;-61
2023/03/12 05:28:48;;;;;;;20.83;9.45;;;;;;;;;;6261310;28;20431;-61
2023/03/12 05:31:49;;;;;;;20.75;8.10;;;;;;;;;;6262732;28;20057;-60
2023/03/12 05:34:49;;;;;;;19.63;8.35;;;;;;;;;;6263467;28;20049;-62
2023/03/12 05:37:50;;;;;;;19.58;8.05;;;;;;;;;;6261144;28;20049;-62
2023/03/12 05:40:55;;;;;;;18.60;7.82;;;;;;;;;;6264073;28;20041;-62
2023/03/12 05:43:56;;;;;;;17.27;8.05;;;;;;;;;;6261982;28;20041;-60
2023/03/12 05:46:57;;;;;;;16.90;7.55;;;;;;;;;;6260726;28;20041;-60
2023/03/12 05:49:57;;;;;;;18.25;8.00;;;;;;;;;;6261196;28;20542;-60
2023/03/12 05:52:58;;;;;;;17.88;8.05;;;;;;;;;;6262708;28;20692;-61
2023/03/12 05:56:07;;;;;;;14.77;7.13;;;;;;;;;;6266276;28;20536;-62
2023/03/12 05:59:09;;;;;;;21.40;7.65;;;;;;;;;;6258885;28;20045;-61
2023/03/12 06:02:10;;;;;;;14.75;7.07;;;;;;;;;;6262630;28;20041;-61
2023/03/12 06:05:11;;;;;;;14.93;6.93;;;;;;;;;;6261895;28;20063;-61
2023/03/12 06:08:12;;;;;;;16.93;7.33;;;;;;;;;;6266999;28;20053;-61
2023/03/12 06:11:12;;;;;;;18.55;6.93;;;;;;;;;;6263813;28;20407;-62
2023/03/12 06:14:13;;;;;;;15.25;7.63;;;;;;;;;;6258090;28;20418;-61
2023/03/12 06:17:14;;;;;;;16.42;7.07;;;;;;;;;;6260671;28;20048;-62
2023/03/12 06:20:14;;;;;;;15.52;7.25;;;;;;;;;;6259923;28;20156;-61
2023/03/12 06:23:15;;;;;;;17.00;7.63;;;;;;;;;;6256952;28;20045;-61
2023/03/12 06:26:16;;;;;;;15.27;6.85;;;;;;;;;;6258700;28;20041;-61
2023/03/12 06:29:16;;;;;;;16.27;7.00;;;;;;;;;;6259351;28;20057;-62
2023/03/12 06:32:17;;;;;;;16.92;7.30;;;;;;;;;;6260209;28;20403;-62
2023/03/12 06:35:18;;;;;;;19.35;7.15;;;;;;;;;;6260566;28;20041;-61
2023/03/12 06:38:19;;;;;;;15.18;6.72;;;;;;;;;;6259544;28;20091;-61
2023/03/12 06:41:19;;;;;;;14.75;7.07;;;;;;;;;;6258196;28;20045;-62
2023/03/12 06:44:20;;;;;;;18.85;6.95;;;;;;;;;;6257740;28;20056;-62
2023/03/12 06:47:21;;;;;;;17.77;6.47;;;;;;;;;;6263560;28;20055;-61
2023/03/12 06:50:22;;;;;;;12.55;5.70;;;;;;;;;;6267405;28;20044;-62
2023/03/12 06:53:24;;;;;;;15.77;6.65;;;;;;;;;;6264316;28;20116;-62
2023/03/12 06:56:24;;;;;;;13.80;6.00;;;;;;;;;;6269176;28;20045;-61
2023/03/12 06:59:26;;;;;;;14.75;6.45;;;;;;;;;;6265612;28;20143;-61
2023/03/12 07:02:26;;;;;;;13.75;5.90;;;;;;;;;;6261905;28;20048;-62
2023/03/12 07:05:28;;;;;;;14.90;6.35;;;;;;;;;;6264361;28;20056;-61
2023/03/12 07:08:29;;;;;;;16.60;6.80;;;;;;;;;;6267207;28;20045;-61
2023/03/12 07:11:30;;;;;;;13.53;6.50;;;;;;;;;;6270581;28;20087;-61
2023/03/12 07:14:31;;;;;;;15.15;6.03;;;;;;;;;;6270685;28;20045;-62
2023/03/12 07:17:32;;;;;;;14.95;6.18;;;;;;;;;;6272380;28;20076;-58
2023/03/12 07:20:35;;;;;;;13.73;6.03;;;;;;;;;;6271726;28;20052;-60
2023/03/12 07:23:36;;;;;;;13.30;6.22;;;;;;;;;;6270163;28;20051;-62
2023/03/12 07:26:37;;;;;;;16.92;7.38;;;;;;;;;;6271598;28;20045;-65
2023/03/12 07:29:37;;;;;;;17.02;6.97;;;;;;;;;;6271096;28;20057;-62
2023/03/12 07:32:38;;;;;;;16.92;6.28;;;;;;;;;;6270134;28;20049;-61
2023/03/12 07:35:39;;;;;;;14.35;6.40;;;;;;;;;;6271638;28;20419;-62
2023/03/12 07:38:40;;;;;;;15.82;6.85;;;;;;;;;;6271608;28;20699;-62
2023/03/12 07:41:40;;;;;;;14.95;6.88;;;;;;;;;;6268912;28;20052;-62
2023/03/12 07:44:41;;;;;;;18.92;7.90;;;;;;;;;;6264108;28;20439;-62
2023/03/12 07:47:42;;;;;;;17.50;7.55;;;;;;;;;;6266208;28;20434;-61
2023/03/12 07:50:43;;;;;;;20.48;7.82;;;;;;;;;;6270755;28;20423;-62
2023/03/12 07:53:44;;;;;;;15.98;7.47;;;;;;;;;;6269418;28;20049;-62
2023/03/12 07:56:44;;;;;;;17.38;7.72;;;;;;;;;;6270033;28;20053;-61
2023/03/12 07:59:46;;;;;;;18.23;7.95;;;;;;;;;;6269868;28;20068;-63
2023/03/12 08:02:47;;;;;;;16.10;7.53;;;;;;;;;;6269133;28;20068;-71
2023/03/12 08:05:56;;;;;;;18.60;8.50;;;;;;;;;;6269571;28;20033;-62
2023/03/12 08:08:57;;;;;;;20.42;7.65;;;;;;;;;;6278908;28;20044;-62
2023/03/12 08:11:57;;;;;;;21.67;8.00;;;;;;;;;;6279280;28;20415;-62
2023/03/12 08:14:58;;;;;;;19.17;7.20;;;;;;;;;;6273337;28;20438;-62
2023/03/12 08:17:59;;;;;;;16.08;7.20;;;;;;;;;;6280662;28;20073;-61
2023/03/12 08:21:00;;;;;;;15.57;7.20;;;;;;;;;;6280223;28;20056;-62
2023/03/12 08:24:01;;;;;;;16.98;7.70;;;;;;;;;;6269312;28;20064;-62
2023/03/12 08:27:02;;;;;;;17.48;8.23;;;;;;;;;;6280403;28;20090;-62
2023/03/12 08:30:05;;;;;;;20.13;8.32;;;;;;;;;;6271964;28;20522;-62
2023/03/12 08:33:06;;;;;;;16.63;7.32;;;;;;;;;;6287492;28;20048;-63
2023/03/12 08:36:07;;;;;;;17.95;8.70;;;;;;;;;;6271303;28;20049;-62
2023/03/12 08:39:08;;;;;;;19.50;7.63;;;;;;;;;;6270084;28;20061;-61
2023/03/12 08:42:08;;;;;;;16.80;7.28;;;;;;;;;;6268970;28;20526;-61
2023/03/12 08:45:11;;;;;;;18.25;7.25;;;;;;;;;;6268893;28;20463;-62
2023/03/12 08:48:12;;;;;;;14.68;7.00;;;;;;;;;;6283976;28;20057;-63
2023/03/12 08:51:12;;;;;;;14.90;6.40;;;;;;;;;;6275355;28;20053;-62
2023/03/12 08:54:13;;;;;;;13.13;5.82;;;;;;;;;;6268262;28;20059;-61
2023/03/12 08:57:15;;;;;;;12.63;5.28;;;;;;;;;;6281167;28;20049;-62
2023/03/12 09:00:16;;;;;;;11.23;5.43;;;;;;;;;;6274721;28;20431;-61
2023/03/12 09:03:17;;;;;;;11.25;5.40;;;;;;;;;;6265743;28;20076;-60
2023/03/12 09:06:18;;;;;;;14.07;5.40;;;;;;;;;;6274954;28;20131;-62
2023/03/12 09:09:19;;;;;;;12.60;5.53;;;;;;;;;;6271001;28;20045;-62
2023/03/12 09:12:20;;;;;;;12.43;5.22;;;;;;;;;;6277689;28;20095;-62
2023/03/12 09:15:20;;;;;;;10.63;5.22;;;;;;;;;;6270496;28;20056;-63
2023/03/12 09:18:21;;;;;;;12.65;6.05;;;;;;;;;;6273404;28;20045;-68
2023/03/12 09:21:22;;;;;;;14.02;6.22;;;;;;;;;;6282468;28;20053;-64
2023/03/12 09:24:23;;;;;;;15.00;6.65;;;;;;;;;;6273177;28;20149;-56
2023/03/12 09:27:23;;;;;;;14.15;5.82;;;;;;;;;;6272501;28;20786;-61
2023/03/12 09:30:25;;;;;;;13.68;6.18;;;;;;;;;;6278568;28;20052;-55
2023/03/12 09:33:26;;;;;;;12.77;6.20;;;;;;;;;;6271344;28;20041;-61
2023/03/12 09:36:27;;;;;;;13.07;5.78;;;;;;;;;;6279083;28;20526;-61
2023/03/12 09:39:27;;;;;;;13.00;5.63;;;;;;;;;;6274878;28;20062;-62
2023/03/12 09:42:44;;;;;;;9.95;5.00;;;;;;;;;;6269114;28;20047;-61
2023/03/12 09:45:46;;;;;;;10.88;4.85;;;;;;;;;;6267288;28;20476;-61
2023/03/12 09:48:49;;;;;;;14.07;4.78;;;;;;;;;;6268078;28;20128;-62
2023/03/12 09:51:54;;;;;;;12.95;5.60;;;;;;;;;;6267420;28;20049;-61
2023/03/12 09:55:14;;;;;;;14.18;6.25;;;;;;;;;;6265497;28;20434;-62
2023/03/12 09:58:23;;;;;;;11.15;4.65;;;;;;;;;;6265483;28;20485;-62
2023/03/12 10:01:40;;;;;;;9.18;3.25;;;;;;;;;;6260090;28;20049;-62
2023/03/12 10:04:48;;;;;;;7.50;3.17;;;;;;;;;;6262869;28;20071;-62
2023/03/12 10:07:58;;;;;;;6.78;3.47;;;;;;;;;;6262410;28;20053;-58
2023/03/12 10:11:19;;;;;;;10.32;3.88;;;;;;;;;;6249194;28;20452;-60
2023/03/12 10:14:41;;;;;;;7.55;3.72;;;;;;;;;;6258658;28;20057;-61
2023/03/12 10:17:55;;;;;;;12.63;3.75;;;;;;;;;;6261051;28;20102;-61
2023/03/12 10:21:15;;;;;;;10.95;4.00;;;;;;;;;;6257316;28;20041;-61
2023/03/12 10:24:36;;;;;;;8.50;3.55;;;;;;;;;;6255549;28;20057;-62
2023/03/12 10:27:36;;;;;;;8.65;3.42;;;;;;;;;;6266043;28;20057;-61
2023/03/12 10:30:41;;;;;;;8.30;4.13;;;;;;;;;;6264288;28;20053;-62
2023/03/12 10:33:48;;;;;;;10.20;3.95;;;;;;;;;;6259672;28;20051;-62
2023/03/12 10:36:50;;;;;;;13.52;3.85;;;;;;;;;;6264486;28;20430;-61
2023/03/12 10:39:52;;;;;;;8.13;3.42;;;;;;;;;;6260672;28;20072;-61
2023/03/12 10:42:54;;;;;;;10.50;4.10;;;;;;;;;;6259434;28;20217;-61
2023/03/12 10:46:04;;;;;;;10.23;3.67;;;;;;;;;;6258281;28;20064;-61
2023/03/12 10:49:36;;;;;;;10.60;3.33;;;;;;;;;;6256181;28;20136;-61
2023/03/12 10:52:36;;;;;;;9.35;4.10;;;;;;;;;;6243330;28;20130;-61
2023/03/12 10:55:38;;;;;;;9.25;3.70;;;;;;;;;;6260444;28;20057;-61
2023/03/12 10:58:44;;;;;;;7.15;3.90;;;;;;;;;;6259483;28;20450;-61
2023/03/12 11:01:50;;;;;;;9.13;4.05;;;;;;;;;;6259986;28;20049;-62
2023/03/12 11:04:52;;;;;;;8.60;3.95;;;;;;;;;;6261287;28;20056;-61
2023/03/12 11:07:53;;;;;;;17.27;4.07;;;;;;;;;;6259020;28;20341;-62
2023/03/12 11:10:57;;;;;;;7.53;3.92;;;;;;;;;;6259964;28;20049;-61
2023/03/12 11:14:14;;;;;;;8.57;3.63;;;;;;;;;;6257466;28;20055;-62
2023/03/12 11:17:26;;;;;;;6.35;3.65;;;;;;;;;;6255540;28;20045;-61
2023/03/12 11:20:29;;;;;;;7.65;3.10;;;;;;;;;;6263629;28;20045;-62
2023/03/12 11:23:30;;;;;;;6.95;2.90;;;;;;;;;;6254325;28;20396;-62
2023/03/12 11:26:35;;;;;;;7.43;3.10;;;;;;;;;;6261726;28;20102;-62
2023/03/12 11:29:45;;;;;;;10.18;3.40;;;;;;;;;;6263882;28;20057;-62
2023/03/12 11:32:48;;;;;;;9.77;3.03;;;;;;;;;;6260557;28;20415;-62
2023/03/12 11:36:16;;;;;;;9.05;3.17;;;;;;;;;;6271122;28;20057;-61
2023/03/12 11:39:37;;;;;;;7.65;3.05;;;;;;;;;;6270325;28;20430;-63
2023/03/12 11:43:02;;;;;;;6.50;3.10;;;;;;;;;;6267954;28;20405;-61
2023/03/12 11:46:33;;;;;;;8.90;2.80;;;;;;;;;;6279230;28;20103;-62
2023/03/12 11:50:06;;;;;;;11.82;5.18;;;;;;;;;;6283119;28;20455;-62
2023/03/12 11:53:19;;;;;;;;;;;;;;;;;;6248481;28;20057;-62
2023/03/12 11:56:41;;;;;;;6.55;3.05;;;;;;;;;;6276835;28;20082;-59
2023/03/12 12:00:13;;;;;;;9.80;3.25;;;;;;;;;;6279372;28;20051;-59
2023/03/12 12:03:29;;;;;;;9.75;4.78;;;;;;;;;;6266964;28;20048;-64
2023/03/12 12:06:59;;;;;;;5.45;2.63;;;;;;;;;;6271041;28;20471;-61
2023/03/12 12:10:37;;;;;;;8.32;3.40;;;;;;;;;;6268240;28;20044;-61
2023/03/12 12:14:05;;;;;;;5.78;2.40;;;;;;;;;;6269530;28;20537;-61
2023/03/12 12:17:23;;;;;;;5.25;2.33;;;;;;;;;;6269389;28;20041;-62
2023/03/12 12:20:29;;;;;;;8.13;2.90;;;;;;;;;;6270687;28;20048;-62
2023/03/12 12:23:51;;;;;;;5.47;2.65;;;;;;;;;;6270362;28;20499;-62
2023/03/12 12:26:58;;;;;;;6.45;3.25;;;;;;;;;;6269866;28;20496;-61
2023/03/12 12:30:20;;;;;;;5.07;2.55;;;;;;;;;;6268255;28;20059;-61
2023/03/12 12:33:45;;;;;;;5.60;2.50;;;;;;;;;;6269849;28;20049;-61
2023/03/12 12:36:51;;;;;;;5.63;2.85;;;;;;;;;;6258773;28;20492;-62
2023/03/12 12:40:23;;;;;;;6.93;2.95;;;;;;;;;;6270121;28;20503;-61
2023/03/12 12:43:27;;;;;;;7.73;3.00;;;;;;;;;;6267824;28;20051;-61
2023/03/12 12:46:40;;;;;;;6.95;2.60;;;;;;;;;;6269670;28;20123;-62
2023/03/12 12:49:50;;;;;;;6.47;2.50;;;;;;;;;;6263538;28;20076;-63
2023/03/12 12:53:22;;;;;;;5.00;2.70;;;;;;;;;;6266834;28;20098;-62
2023/03/12 12:56:29;;;;;;;6.83;2.50;;;;;;;;;;6260200;28;20055;-61
2023/03/12 12:59:44;;;;;;;7.18;3.00;;;;;;;;;;6269340;28;20335;-61
2023/03/12 13:02:46;;;;;;;14.05;7.65;;;;;;;;;;6265306;28;20045;-60
2023/03/12 13:05:58;;;;;;;9.65;5.95;;;;;;;;;;6268572;28;20041;-60
2023/03/12 13:09:11;;;;;;;9.13;3.50;;;;;;;;;;6263863;28;20106;-60
2023/03/12 13:12:23;;;;;;;6.72;2.80;;;;;;;;;;6268457;28;20064;-56
2023/03/12 13:15:30;;;;;;;5.65;2.70;;;;;;;;;;6268658;28;20055;-60
2023/03/12 13:18:31;;;;;;;7.22;2.72;;;;;;;;;;6268518;28;20056;-62
2023/03/12 13:21:39;;;;;;;6.55;2.50;;;;;;;;;;6268228;28;20053;-60
2023/03/12 13:25:11;;;;;;;6.95;2.45;;;;;;;;;;6268930;28;20136;-60
2023/03/12 13:28:31;;;;;;;6.60;2.35;;;;;;;;;;6268878;28;20466;-60
2023/03/12 13:31:34;;;;;;;5.40;2.10;;;;;;;;;;6254765;28;20061;-61
2023/03/12 13:34:44;;;;;;;5.82;2.60;;;;;;;;;;6252708;28;20126;-61
2023/03/12 13:37:45;;;;;;;7.78;2.50;;;;;;;;;;6258825;28;20053;-61
2023/03/12 13:40:59;;;;;;;8.02;3.25;;;;;;;;;;6258970;28;20068;-60
2023/03/12 13:44:25;;;;;;;5.50;2.63;;;;;;;;;;6254962;28;20071;-61
2023/03/12 13:47:35;;;;;;;7.05;3.50;;;;;;;;;;6257414;28;20049;-61
2023/03/12 13:50:41;;;;;;;12.10;6.10;;;;;;;;;;6259012;28;20053;-61
2023/03/12 13:53:48;;;;;;;9.55;4.25;;;;;;;;;;6253818;28;20052;-61
2023/03/12 13:57:02;;;;;;;10.15;4.60;;;;;;;;;;6254282;28;20048;-60
2023/03/12 14:00:10;;;;;;;10.75;4.55;;;;;;;;;;6254949;28;20396;-61
2023/03/12 14:03:17;;;;;;;10.90;4.60;;;;;;;;;;6250725;28;20199;-60
2023/03/12 14:06:21;;;;;;;11.27;5.30;;;;;;;;;;6249941;28;20063;-61
2023/03/12 14:09:36;;;;;;;10.27;4.80;;;;;;;;;;6248201;28;20040;-61
2023/03/12 14:12:42;;;;;;;9.43;4.60;;;;;;;;;;6247350;28;20061;-61
2023/03/12 14:15:55;;;;;;;10.95;4.65;;;;;;;;;;6249700;28;20053;-61
2023/03/12 14:18:56;;;;;;;9.32;4.97;;;;;;;;;;6248729;28;20110;-61
2023/03/12 14:22:03;;;;;;;8.88;4.43;;;;;;;;;;6246266;28;20052;-60
2023/03/12 14:25:20;;;;;;;7.97;3.92;;;;;;;;;;6250677;28;20132;-61
2023/03/12 14:28:23;;;;;;;10.13;4.75;;;;;;;;;;6249220;28;20142;-61
2023/03/12 14:31:24;;;;;;;10.20;4.45;;;;;;;;;;6246435;28;20804;-61
2023/03/12 14:34:27;;;;;;;11.90;6.88;;;;;;;;;;6249616;28;20403;-61
2023/03/12 14:37:37;;;;;;;9.65;4.57;;;;;;;;;;6250626;28;20079;-61
2023/03/12 14:40:44;;;;;;;8.63;4.65;;;;;;;;;;6253976;28;20053;-61
2023/03/12 14:43:50;;;;;;;9.32;4.70;;;;;;;;;;6251454;28;20205;-61
2023/03/12 14:47:08;;;;;;;8.88;4.60;;;;;;;;;;6256880;28;20049;-61
2023/03/12 14:50:21;;;;;;;8.60;4.25;;;;;;;;;;6253713;28;20053;-62
2023/03/12 14:53:28;;;;;;;8.65;4.45;;;;;;;;;;6246395;28;20252;-61
2023/03/12 14:56:34;;;;;;;14.05;6.45;;;;;;;;;;6248914;28;20075;-61
2023/03/12 14:59:37;;;;;;;24.48;10.25;;;;;;;;;;6250128;28;20053;-61
2023/03/12 15:02:39;;;;;;;10.70;4.93;;;;;;;;;;6247271;28;20054;-61
2023/03/12 15:05:46;;;;;;;8.05;4.63;;;;;;;;;;6247257;28;21117;-61
2023/03/12 15:08:47;;;;;;;12.18;5.25;;;;;;;;;;6251546;28;20049;-61
2023/03/12 15:11:58;;;;;;;14.90;7.35;;;;;;;;;;6251216;28;20502;-60
2023/03/12 15:15:07;;;;;;;11.73;4.97;;;;;;;;;;6253816;28;20540;-61
2023/03/12 15:18:14;;;;;;;9.15;4.72;;;;;;;;;;6251972;28;20098;-61
2023/03/12 15:21:16;;;;;;;10.27;5.45;;;;;;;;;;6252910;28;20455;-61
2023/03/12 15:24:17;;;;;;;11.48;5.55;;;;;;;;;;6252740;28;20041;-61
2023/03/12 15:27:30;;;;;;;12.65;6.20;;;;;;;;;;6253046;28;20055;-61
2023/03/12 15:30:33;;;;;;;12.90;6.80;;;;;;;;;;6253188;28;20045;-61
2023/03/12 15:33:33;;;;;;;17.48;8.15;;;;;;;;;;6251906;28;20083;-60
2023/03/12 15:36:34;;;;;;;14.70;7.18;;;;;;;;;;6251606;28;20894;-61
2023/03/12 15:39:36;;;;;;;10.25;5.68;;;;;;;;;;6252138;28;20045;-61
2023/03/12 15:42:41;;;;;;;11.55;5.60;;;;;;;;;;6252096;28;20056;-61
2023/03/12 15:45:41;;;;;;;10.45;4.45;;;;;;;;;;6253045;28;20167;-61
2023/03/12 15:48:49;;;;;;;11.23;5.57;;;;;;;;;;6252242;28;20141;-60
2023/03/12 15:52:04;;;;;;;8.52;3.97;;;;;;;;;;6252213;28;20140;-61
2023/03/12 15:55:11;;;;;;;8.38;4.10;;;;;;;;;;6253560;28;20115;-60
2023/03/12 15:58:30;;;;;;;9.80;3.95;;;;;;;;;;6252819;28;20068;-61
2023/03/12 16:01:52;;;;;;;7.10;3.67;;;;;;;;;;6233780;28;20053;-60
2023/03/12 16:04:53;;;;;;;15.35;7.88;;;;;;;;;;6253252;28;20049;-61
2023/03/12 16:07:53;;;;;;;9.20;4.97;;;;;;;;;;6253005;28;20048;-61
2023/03/12 16:10:55;;;;;;;8.60;4.18;;;;;;;;;;6252002;28;20136;-61
2023/03/12 16:14:29;;;;;;;11.93;6.03;;;;;;;;;;6250049;28;20045;-61
2023/03/12 16:17:30;;;;;;;9.68;4.32;;;;;;;;;;6253399;28;20060;-61
2023/03/12 16:20:31;;;;;;;11.10;5.03;;;;;;;;;;6251690;28;20053;-61
2023/03/12 16:23:32;;;;;;;10.77;4.85;;;;;;;;;;6247897;28;20663;-61
2023/03/12 16:26:35;;;;;;;9.75;4.57;;;;;;;;;;6252815;28;20049;-61
2023/03/12 16:29:37;;;;;;;8.30;4.18;;;;;;;;;;6251172;28;20064;-61
2023/03/12 16:32:38;;;;;;;10.35;4.97;;;;;;;;;;6250805;28;20404;-61
2023/03/12 16:35:38;;;;;;;12.13;5.55;;;;;;;;;;6252416;28;20045;-61
2023/03/12 16:38:39;;;;;;;9.68;4.75;;;;;;;;;;6253295;28;20140;-62
2023/03/12 16:41:40;;;;;;;12.43;4.70;;;;;;;;;;6250332;28;20061;-61
2023/03/12 16:44:42;;;;;;;10.68;5.00;;;;;;;;;;6249679;28;20132;-61
2023/03/12 16:47:44;;;;;;;9.20;5.13;;;;;;;;;;6249382;28;20049;-62
2023/03/12 16:50:48;;;;;;;11.77;5.10;;;;;;;;;;6249300;28;20053;-61
2023/03/12 16:53:48;;;;;;;19.83;10.82;;;;;;;;;;6249951;28;20135;-61
2023/03/12 16:56:49;;;;;;;17.83;12.05;;;;;;;;;;6250977;28;20049;-61
2023/03/12 16:59:50;;;;;;;13.93;7.07;;;;;;;;;;6253253;28;20894;-61
2023/03/12 17:02:56;;;;;;;17.05;9.07;;;;;;;;;;6246082;28;20160;-60
2023/03/12 17:05:57;;;;;;;15.20;7.47;;;;;;;;;;6232165;28;20041;-60
2023/03/12 17:08:58;;;;;;;30.73;14.50;;;;;;;;;;6248744;28;20115;-60
2023/03/12 17:11:59;;;;;;;21.20;11.68;;;;;;;;;;6245099;28;20653;-60
2023/03/12 17:15:01;;;;;;;18.67;10.87;;;;;;;;;;6246811;28;20064;-61
2023/03/12 17:18:03;;;;;;;13.45;6.38;;;;;;;;;;6248622;28;20057;-61
2023/03/12 17:21:04;;;;;;;13.65;7.13;;;;;;;;;;6246198;28;20060;-61
2023/03/12 17:24:05;;;;;;;23.60;12.45;;;;;;;;;;6243784;28;20041;-61
2023/03/12 17:27:06;;;;;;;15.27;8.88;;;;;;;;;;6248338;28;20627;-61
2023/03/12 17:30:07;;;;;;;15.23;7.65;;;;;;;;;;6249158;28;20057;-60
2023/03/12 17:33:14;;;;;;;21.53;12.53;;;;;;;;;;6247374;28;20045;-58
2023/03/12 17:36:15;;;;;;;15.43;7.72;;;;;;;;;;6252172;28;20338;-61
2023/03/12 17:39:15;;;;;;;14.13;7.10;;;;;;;;;;6254493;28;20107;-58
2023/03/12 17:42:16;;;;;;;15.23;7.03;;;;;;;;;;6254075;28;20164;-59
2023/03/12 17:45:17;;;;;;;16.70;7.50;;;;;;;;;;6254882;28;20135;-60
2023/03/12 17:48:18;;;;;;;13.65;6.93;;;;;;;;;;6256014;28;20488;-61
2023/03/12 17:51:22;;;;;;;12.82;6.72;;;;;;;;;;6254377;28;20057;-61
2023/03/12 17:54:23;;;;;;;8.27;4.55;;;;;;;;;;6254067;28;20060;-60
2023/03/12 17:57:24;;;;;;;12.30;6.25;;;;;;;;;;6254584;28;20041;-60
2023/03/12 18:00:24;;;;;;;14.63;7.57;;;;;;;;;;6255964;28;20041;-60
2023/03/12 18:03:25;;;;;;;12.02;6.60;;;;;;;;;;6233803;28;20484;-62
2023/03/12 18:06:26;;;;;;;11.98;6.03;;;;;;;;;;6253128;28;20083;-61
2023/03/12 18:09:27;;;;;;;13.30;6.57;;;;;;;;;;6254502;28;20052;-61
2023/03/12 18:12:28;;;;;;;13.98;6.60;;;;;;;;;;6252802;28;20059;-60